sensor_id;sensor_type;location;lat;lon;timestamp;P1;durP1;ratioP1;P2;durP2;ratioP2
80508;SDS011;69838;52.602;13.434;2023-07-16T00:00:02;6.70;;;5.05;;
80508;SDS011;69838;52.602;13.434;2023-07-16T00:00:49;7.00;;;4.80;;
80508;SDS011;69838;52.602;13.434;2023-07-16T00:01:35;6.88;;;4.78;;
80508;SDS011;69838;52.602;13.434;2023-07-16T00:02:20;6.72;;;5.20;;
80508;SDS011;69838;52.602;13.434;2023-07-16T00:03:05;7.13;;;4.80;;
80508;SDS011;69838;52.602;13.434;2023-07-16T00:03:51;6.65;;;4.90;;
80508;SDS011;69838;52.602;13.434;2023-07-16T00:04:36;8.05;;;4.95;;
80508;SDS011;69838;52.602;13.434;2023-07-16T00:05:21;5.93;;;5.22;;
80508;SDS011;69838;52.602;13.434;2023-07-16T00:06:07;8.60;;;4.80;;
80508;SDS011;69838;52.602;13.434;2023-07-16T00:06:52;6.65;;;4.85;;
80508;SDS011;69838;52.602;13.434;2023-07-16T00:07:37;7.55;;;6.70;;
80508;SDS011;69838;52.602;13.434;2023-07-16T00:08:22;6.88;;;4.95;;
80508;SDS011;69838;52.602;13.434;2023-07-16T00:09:08;6.43;;;5.45;;
80508;SDS011;69838;52.602;13.434;2023-07-16T00:09:53;6.30;;;4.80;;
80508;SDS011;69838;52.602;13.434;2023-07-16T00:10:39;7.20;;;5.25;;
80508;SDS011;69838;52.602;13.434;2023-07-16T00:11:24;6.65;;;5.00;;
80508;SDS011;69838;52.602;13.434;2023-07-16T00:12:09;7.05;;;4.55;;
80508;SDS011;69838;52.602;13.434;2023-07-16T00:12:55;7.45;;;4.50;;
80508;SDS011;69838;52.602;13.434;2023-07-16T00:13:40;7.38;;;5.72;;
80508;SDS011;69838;52.602;13.434;2023-07-16T00:14:30;7.20;;;4.93;;
80508;SDS011;69838;52.602;13.434;2023-07-16T00:15:16;7.07;;;5.03;;
80508;SDS011;69838;52.602;13.434;2023-07-16T00:16:01;6.68;;;4.55;;
80508;SDS011;69838;52.602;13.434;2023-07-16T00:16:46;9.05;;;5.07;;
80508;SDS011;69838;52.602;13.434;2023-07-16T00:17:32;6.13;;;4.97;;
80508;SDS011;69838;52.602;13.434;2023-07-16T00:18:18;8.73;;;5.60;;
80508;SDS011;69838;52.602;13.434;2023-07-16T00:19:03;6.50;;;4.75;;
80508;SDS011;69838;52.602;13.434;2023-07-16T00:19:49;6.97;;;6.00;;
80508;SDS011;69838;52.602;13.434;2023-07-16T00:20:35;9.30;;;5.35;;
80508;SDS011;69838;52.602;13.434;2023-07-16T00:21:20;7.95;;;5.53;;
80508;SDS011;69838;52.602;13.434;2023-07-16T00:22:05;7.63;;;6.03;;
80508;SDS011;69838;52.602;13.434;2023-07-16T00:22:51;7.15;;;5.13;;
80508;SDS011;69838;52.602;13.434;2023-07-16T00:23:36;7.47;;;5.28;;
80508;SDS011;69838;52.602;13.434;2023-07-16T00:24:22;7.30;;;5.40;;
80508;SDS011;69838;52.602;13.434;2023-07-16T00:25:07;7.63;;;5.63;;
80508;SDS011;69838;52.602;13.434;2023-07-16T00:25:52;6.70;;;5.05;;
80508;SDS011;69838;52.602;13.434;2023-07-16T00:26:38;7.97;;;7.18;;
80508;SDS011;69838;52.602;13.434;2023-07-16T00:27:23;7.28;;;5.25;;
80508;SDS011;69838;52.602;13.434;2023-07-16T00:28:08;7.63;;;4.95;;
80508;SDS011;69838;52.602;13.434;2023-07-16T00:28:53;8.13;;;6.55;;
80508;SDS011;69838;52.602;13.434;2023-07-16T00:29:38;6.70;;;5.60;;
80508;SDS011;69838;52.602;13.434;2023-07-16T00:30:24;7.05;;;5.65;;
80508;SDS011;69838;52.602;13.434;2023-07-16T00:31:09;11.02;;;5.68;;
80508;SDS011;69838;52.602;13.434;2023-07-16T00:31:55;8.02;;;5.30;;
80508;SDS011;69838;52.602;13.434;2023-07-16T00:32:40;7.45;;;5.18;;
80508;SDS011;69838;52.602;13.434;2023-07-16T00:33:25;7.78;;;5.53;;
80508;SDS011;69838;52.602;13.434;2023-07-16T00:34:10;7.10;;;5.45;;
80508;SDS011;69838;52.602;13.434;2023-07-16T00:34:58;7.65;;;5.47;;
80508;SDS011;69838;52.602;13.434;2023-07-16T00:35:49;6.97;;;5.53;;
80508;SDS011;69838;52.602;13.434;2023-07-16T00:36:35;6.75;;;5.40;;
80508;SDS011;69838;52.602;13.434;2023-07-16T00:37:20;8.20;;;5.32;;
80508;SDS011;69838;52.602;13.434;2023-07-16T00:38:05;6.63;;;5.30;;
80508;SDS011;69838;52.602;13.434;2023-07-16T00:38:51;8.30;;;5.82;;
80508;SDS011;69838;52.602;13.434;2023-07-16T00:39:36;6.43;;;5.63;;
80508;SDS011;69838;52.602;13.434;2023-07-16T00:40:21;6.65;;;5.13;;
80508;SDS011;69838;52.602;13.434;2023-07-16T00:41:06;7.75;;;5.88;;
80508;SDS011;69838;52.602;13.434;2023-07-16T00:41:52;7.00;;;5.65;;
80508;SDS011;69838;52.602;13.434;2023-07-16T00:42:37;8.68;;;7.75;;
80508;SDS011;69838;52.602;13.434;2023-07-16T00:43:22;8.05;;;5.82;;
80508;SDS011;69838;52.602;13.434;2023-07-16T00:44:08;6.72;;;5.47;;
80508;SDS011;69838;52.602;13.434;2023-07-16T00:44:53;6.97;;;5.70;;
80508;SDS011;69838;52.602;13.434;2023-07-16T00:45:39;7.45;;;5.38;;
80508;SDS011;69838;52.602;13.434;2023-07-16T00:46:25;7.72;;;5.90;;
80508;SDS011;69838;52.602;13.434;2023-07-16T00:47:10;7.75;;;5.95;;
80508;SDS011;69838;52.602;13.434;2023-07-16T00:47:56;7.28;;;5.72;;
80508;SDS011;69838;52.602;13.434;2023-07-16T00:48:42;6.75;;;5.53;;
80508;SDS011;69838;52.602;13.434;2023-07-16T00:49:28;7.32;;;6.05;;
80508;SDS011;69838;52.602;13.434;2023-07-16T00:50:14;7.10;;;5.55;;
80508;SDS011;69838;52.602;13.434;2023-07-16T00:51:00;6.82;;;5.22;;
80508;SDS011;69838;52.602;13.434;2023-07-16T00:51:47;8.23;;;5.45;;
80508;SDS011;69838;52.602;13.434;2023-07-16T00:52:32;7.03;;;5.03;;
80508;SDS011;69838;52.602;13.434;2023-07-16T00:53:18;6.53;;;5.50;;
80508;SDS011;69838;52.602;13.434;2023-07-16T00:54:04;6.53;;;5.60;;
80508;SDS011;69838;52.602;13.434;2023-07-16T00:54:50;6.85;;;5.38;;
80508;SDS011;69838;52.602;13.434;2023-07-16T00:55:36;6.95;;;5.65;;
80508;SDS011;69838;52.602;13.434;2023-07-16T00:56:21;6.47;;;5.35;;
80508;SDS011;69838;52.602;13.434;2023-07-16T00:57:07;8.88;;;5.50;;
80508;SDS011;69838;52.602;13.434;2023-07-16T00:57:53;7.45;;;5.38;;
80508;SDS011;69838;52.602;13.434;2023-07-16T00:58:40;6.88;;;4.90;;
80508;SDS011;69838;52.602;13.434;2023-07-16T00:59:26;6.55;;;5.18;;
80508;SDS011;69838;52.602;13.434;2023-07-16T01:00:11;6.30;;;4.63;;
80508;SDS011;69838;52.602;13.434;2023-07-16T01:00:57;5.70;;;4.43;;
80508;SDS011;69838;52.602;13.434;2023-07-16T01:01:42;8.07;;;4.90;;
80508;SDS011;69838;52.602;13.434;2023-07-16T01:02:27;7.43;;;4.78;;
80508;SDS011;69838;52.602;13.434;2023-07-16T01:03:13;7.68;;;5.03;;
80508;SDS011;69838;52.602;13.434;2023-07-16T01:03:59;5.65;;;4.22;;
80508;SDS011;69838;52.602;13.434;2023-07-16T01:04:45;5.80;;;4.38;;
80508;SDS011;69838;52.602;13.434;2023-07-16T01:05:31;6.28;;;4.60;;
80508;SDS011;69838;52.602;13.434;2023-07-16T01:06:40;5.82;;;4.38;;
80508;SDS011;69838;52.602;13.434;2023-07-16T01:07:28;7.53;;;4.45;;
80508;SDS011;69838;52.602;13.434;2023-07-16T01:08:18;7.57;;;4.93;;
80508;SDS011;69838;52.602;13.434;2023-07-16T01:09:07;5.40;;;4.30;;
80508;SDS011;69838;52.602;13.434;2023-07-16T01:09:59;6.30;;;4.25;;
80508;SDS011;69838;52.602;13.434;2023-07-16T01:10:45;6.22;;;4.20;;
80508;SDS011;69838;52.602;13.434;2023-07-16T01:11:31;7.93;;;4.88;;
80508;SDS011;69838;52.602;13.434;2023-07-16T01:12:17;6.55;;;4.70;;
80508;SDS011;69838;52.602;13.434;2023-07-16T01:13:06;6.35;;;4.47;;
80508;SDS011;69838;52.602;13.434;2023-07-16T01:13:52;6.78;;;4.55;;
80508;SDS011;69838;52.602;13.434;2023-07-16T01:14:38;6.25;;;4.68;;
80508;SDS011;69838;52.602;13.434;2023-07-16T01:15:25;5.82;;;4.35;;
80508;SDS011;69838;52.602;13.434;2023-07-16T01:16:20;6.40;;;4.88;;
80508;SDS011;69838;52.602;13.434;2023-07-16T01:17:06;6.30;;;4.93;;
80508;SDS011;69838;52.602;13.434;2023-07-16T01:17:52;6.45;;;4.70;;
80508;SDS011;69838;52.602;13.434;2023-07-16T01:18:37;7.78;;;4.38;;
80508;SDS011;69838;52.602;13.434;2023-07-16T01:19:22;6.47;;;4.18;;
80508;SDS011;69838;52.602;13.434;2023-07-16T01:20:07;7.35;;;4.78;;
80508;SDS011;69838;52.602;13.434;2023-07-16T01:20:53;6.82;;;4.97;;
80508;SDS011;69838;52.602;13.434;2023-07-16T01:22:47;5.80;;;4.40;;
80508;SDS011;69838;52.602;13.434;2023-07-16T01:23:39;7.40;;;4.70;;
80508;SDS011;69838;52.602;13.434;2023-07-16T01:29:30;5.97;;;4.03;;
80508;SDS011;69838;52.602;13.434;2023-07-16T01:30:18;5.57;;;4.10;;
80508;SDS011;69838;52.602;13.434;2023-07-16T01:31:04;6.78;;;4.32;;
80508;SDS011;69838;52.602;13.434;2023-07-16T01:31:50;6.50;;;4.68;;
80508;SDS011;69838;52.602;13.434;2023-07-16T01:32:37;6.95;;;4.13;;
80508;SDS011;69838;52.602;13.434;2023-07-16T01:33:22;5.30;;;4.03;;
80508;SDS011;69838;52.602;13.434;2023-07-16T01:34:08;5.55;;;4.30;;
80508;SDS011;69838;52.602;13.434;2023-07-16T01:34:55;5.82;;;4.03;;
80508;SDS011;69838;52.602;13.434;2023-07-16T01:35:42;6.70;;;4.57;;
80508;SDS011;69838;52.602;13.434;2023-07-16T01:36:28;5.90;;;4.63;;
80508;SDS011;69838;52.602;13.434;2023-07-16T01:37:14;6.28;;;4.63;;
80508;SDS011;69838;52.602;13.434;2023-07-16T01:37:59;7.43;;;4.10;;
80508;SDS011;69838;52.602;13.434;2023-07-16T01:38:45;6.07;;;4.10;;
80508;SDS011;69838;52.602;13.434;2023-07-16T01:39:30;5.88;;;4.00;;
80508;SDS011;69838;52.602;13.434;2023-07-16T01:40:17;8.75;;;4.90;;
80508;SDS011;69838;52.602;13.434;2023-07-16T01:41:02;8.85;;;4.80;;
80508;SDS011;69838;52.602;13.434;2023-07-16T01:41:48;6.13;;;4.45;;
80508;SDS011;69838;52.602;13.434;2023-07-16T01:42:33;6.55;;;4.05;;
80508;SDS011;69838;52.602;13.434;2023-07-16T01:43:18;5.60;;;4.53;;
80508;SDS011;69838;52.602;13.434;2023-07-16T01:44:03;5.40;;;3.97;;
80508;SDS011;69838;52.602;13.434;2023-07-16T01:44:49;7.13;;;4.47;;
80508;SDS011;69838;52.602;13.434;2023-07-16T01:45:34;6.32;;;4.72;;
80508;SDS011;69838;52.602;13.434;2023-07-16T01:46:19;7.90;;;4.65;;
80508;SDS011;69838;52.602;13.434;2023-07-16T01:47:06;5.55;;;4.25;;
80508;SDS011;69838;52.602;13.434;2023-07-16T01:47:59;6.18;;;4.35;;
80508;SDS011;69838;52.602;13.434;2023-07-16T01:48:57;6.25;;;4.50;;
80508;SDS011;69838;52.602;13.434;2023-07-16T01:49:43;5.88;;;4.13;;
80508;SDS011;69838;52.602;13.434;2023-07-16T01:50:28;5.82;;;4.32;;
80508;SDS011;69838;52.602;13.434;2023-07-16T01:51:13;6.25;;;4.30;;
80508;SDS011;69838;52.602;13.434;2023-07-16T01:51:59;5.88;;;4.32;;
80508;SDS011;69838;52.602;13.434;2023-07-16T01:52:46;7.70;;;4.45;;
80508;SDS011;69838;52.602;13.434;2023-07-16T01:53:31;6.72;;;4.60;;
80508;SDS011;69838;52.602;13.434;2023-07-16T01:54:17;6.75;;;4.40;;
80508;SDS011;69838;52.602;13.434;2023-07-16T01:55:02;7.38;;;4.22;;
80508;SDS011;69838;52.602;13.434;2023-07-16T01:55:47;6.28;;;5.18;;
80508;SDS011;69838;52.602;13.434;2023-07-16T01:56:32;6.00;;;4.25;;
80508;SDS011;69838;52.602;13.434;2023-07-16T01:57:18;6.35;;;4.32;;
80508;SDS011;69838;52.602;13.434;2023-07-16T01:58:03;6.38;;;4.60;;
80508;SDS011;69838;52.602;13.434;2023-07-16T01:58:50;5.75;;;4.22;;
80508;SDS011;69838;52.602;13.434;2023-07-16T01:59:35;5.97;;;4.45;;
80508;SDS011;69838;52.602;13.434;2023-07-16T02:00:21;6.18;;;4.50;;
80508;SDS011;69838;52.602;13.434;2023-07-16T02:01:06;6.00;;;4.32;;
80508;SDS011;69838;52.602;13.434;2023-07-16T02:01:51;6.05;;;5.00;;
80508;SDS011;69838;52.602;13.434;2023-07-16T02:02:36;6.65;;;4.60;;
80508;SDS011;69838;52.602;13.434;2023-07-16T02:03:22;5.53;;;4.47;;
80508;SDS011;69838;52.602;13.434;2023-07-16T02:04:07;7.25;;;4.78;;
80508;SDS011;69838;52.602;13.434;2023-07-16T02:04:52;7.18;;;4.50;;
80508;SDS011;69838;52.602;13.434;2023-07-16T02:05:37;6.85;;;5.00;;
80508;SDS011;69838;52.602;13.434;2023-07-16T02:06:23;6.38;;;4.15;;
80508;SDS011;69838;52.602;13.434;2023-07-16T02:07:08;7.18;;;4.60;;
80508;SDS011;69838;52.602;13.434;2023-07-16T02:07:53;6.00;;;4.43;;
80508;SDS011;69838;52.602;13.434;2023-07-16T02:08:38;5.80;;;4.68;;
80508;SDS011;69838;52.602;13.434;2023-07-16T02:09:24;6.18;;;4.22;;
80508;SDS011;69838;52.602;13.434;2023-07-16T02:10:10;6.35;;;4.90;;
80508;SDS011;69838;52.602;13.434;2023-07-16T02:10:55;6.38;;;4.63;;
80508;SDS011;69838;52.602;13.434;2023-07-16T02:11:40;7.93;;;4.75;;
80508;SDS011;69838;52.602;13.434;2023-07-16T02:12:26;5.97;;;4.22;;
80508;SDS011;69838;52.602;13.434;2023-07-16T02:13:11;5.85;;;4.55;;
80508;SDS011;69838;52.602;13.434;2023-07-16T02:13:57;5.82;;;4.18;;
80508;SDS011;69838;52.602;13.434;2023-07-16T02:14:42;6.47;;;4.38;;
80508;SDS011;69838;52.602;13.434;2023-07-16T02:15:27;6.90;;;4.95;;
80508;SDS011;69838;52.602;13.434;2023-07-16T02:16:12;5.63;;;4.50;;
80508;SDS011;69838;52.602;13.434;2023-07-16T02:16:58;7.18;;;4.53;;
80508;SDS011;69838;52.602;13.434;2023-07-16T02:17:43;6.88;;;4.63;;
80508;SDS011;69838;52.602;13.434;2023-07-16T02:18:29;5.60;;;4.75;;
80508;SDS011;69838;52.602;13.434;2023-07-16T02:19:14;6.50;;;4.22;;
80508;SDS011;69838;52.602;13.434;2023-07-16T02:19:59;6.10;;;4.07;;
80508;SDS011;69838;52.602;13.434;2023-07-16T02:20:44;6.95;;;4.47;;
80508;SDS011;69838;52.602;13.434;2023-07-16T02:21:30;6.88;;;4.43;;
80508;SDS011;69838;52.602;13.434;2023-07-16T02:22:15;7.00;;;4.78;;
80508;SDS011;69838;52.602;13.434;2023-07-16T02:23:00;6.40;;;4.20;;
80508;SDS011;69838;52.602;13.434;2023-07-16T02:23:46;7.38;;;4.60;;
80508;SDS011;69838;52.602;13.434;2023-07-16T02:24:31;6.88;;;4.65;;
80508;SDS011;69838;52.602;13.434;2023-07-16T02:25:16;5.10;;;4.13;;
80508;SDS011;69838;52.602;13.434;2023-07-16T02:26:01;5.72;;;3.97;;
80508;SDS011;69838;52.602;13.434;2023-07-16T02:26:46;5.72;;;4.00;;
80508;SDS011;69838;52.602;13.434;2023-07-16T02:27:32;7.30;;;4.38;;
80508;SDS011;69838;52.602;13.434;2023-07-16T02:28:17;6.07;;;4.30;;
80508;SDS011;69838;52.602;13.434;2023-07-16T02:29:02;5.75;;;4.35;;
80508;SDS011;69838;52.602;13.434;2023-07-16T02:29:48;6.07;;;4.43;;
80508;SDS011;69838;52.602;13.434;2023-07-16T02:30:33;7.15;;;4.60;;
80508;SDS011;69838;52.602;13.434;2023-07-16T02:31:18;6.18;;;4.18;;
80508;SDS011;69838;52.602;13.434;2023-07-16T02:32:03;6.40;;;4.93;;
80508;SDS011;69838;52.602;13.434;2023-07-16T02:32:49;7.35;;;4.43;;
80508;SDS011;69838;52.602;13.434;2023-07-16T02:33:34;6.10;;;4.70;;
80508;SDS011;69838;52.602;13.434;2023-07-16T02:34:19;6.90;;;4.18;;
80508;SDS011;69838;52.602;13.434;2023-07-16T02:35:05;6.47;;;4.30;;
80508;SDS011;69838;52.602;13.434;2023-07-16T02:35:50;6.97;;;4.13;;
80508;SDS011;69838;52.602;13.434;2023-07-16T02:36:36;6.88;;;4.30;;
80508;SDS011;69838;52.602;13.434;2023-07-16T02:37:22;6.35;;;4.65;;
80508;SDS011;69838;52.602;13.434;2023-07-16T02:38:07;8.43;;;4.57;;
80508;SDS011;69838;52.602;13.434;2023-07-16T02:38:52;7.75;;;4.10;;
80508;SDS011;69838;52.602;13.434;2023-07-16T02:39:41;9.27;;;4.88;;
80508;SDS011;69838;52.602;13.434;2023-07-16T02:40:27;5.78;;;4.45;;
80508;SDS011;69838;52.602;13.434;2023-07-16T02:41:12;6.68;;;4.53;;
80508;SDS011;69838;52.602;13.434;2023-07-16T02:41:57;7.32;;;5.10;;
80508;SDS011;69838;52.602;13.434;2023-07-16T02:42:42;7.05;;;4.30;;
80508;SDS011;69838;52.602;13.434;2023-07-16T02:43:28;7.45;;;4.72;;
80508;SDS011;69838;52.602;13.434;2023-07-16T02:44:13;7.15;;;5.18;;
80508;SDS011;69838;52.602;13.434;2023-07-16T02:44:58;6.45;;;4.57;;
80508;SDS011;69838;52.602;13.434;2023-07-16T02:45:43;8.55;;;5.00;;
80508;SDS011;69838;52.602;13.434;2023-07-16T02:46:29;6.72;;;4.45;;
80508;SDS011;69838;52.602;13.434;2023-07-16T02:47:14;6.97;;;4.90;;
80508;SDS011;69838;52.602;13.434;2023-07-16T02:47:59;7.38;;;4.45;;
80508;SDS011;69838;52.602;13.434;2023-07-16T02:48:44;6.60;;;4.55;;
80508;SDS011;69838;52.602;13.434;2023-07-16T02:49:30;8.02;;;5.20;;
80508;SDS011;69838;52.602;13.434;2023-07-16T02:50:15;9.27;;;5.40;;
80508;SDS011;69838;52.602;13.434;2023-07-16T02:51:00;8.40;;;5.63;;
80508;SDS011;69838;52.602;13.434;2023-07-16T02:51:45;7.32;;;5.55;;
80508;SDS011;69838;52.602;13.434;2023-07-16T02:52:31;7.85;;;5.90;;
80508;SDS011;69838;52.602;13.434;2023-07-16T02:53:16;7.30;;;5.18;;
80508;SDS011;69838;52.602;13.434;2023-07-16T02:54:01;6.85;;;5.28;;
80508;SDS011;69838;52.602;13.434;2023-07-16T02:54:47;8.23;;;5.30;;
80508;SDS011;69838;52.602;13.434;2023-07-16T02:55:32;8.40;;;4.97;;
80508;SDS011;69838;52.602;13.434;2023-07-16T02:56:19;6.57;;;4.53;;
80508;SDS011;69838;52.602;13.434;2023-07-16T02:57:05;7.07;;;4.63;;
80508;SDS011;69838;52.602;13.434;2023-07-16T02:57:50;8.57;;;5.70;;
80508;SDS011;69838;52.602;13.434;2023-07-16T02:58:36;7.15;;;5.63;;
80508;SDS011;69838;52.602;13.434;2023-07-16T02:59:21;6.40;;;4.93;;
80508;SDS011;69838;52.602;13.434;2023-07-16T03:00:06;7.55;;;5.60;;
80508;SDS011;69838;52.602;13.434;2023-07-16T03:00:52;6.57;;;5.07;;
80508;SDS011;69838;52.602;13.434;2023-07-16T03:01:37;7.05;;;4.72;;
80508;SDS011;69838;52.602;13.434;2023-07-16T03:02:23;7.15;;;5.00;;
80508;SDS011;69838;52.602;13.434;2023-07-16T03:03:08;7.97;;;5.28;;
80508;SDS011;69838;52.602;13.434;2023-07-16T03:03:53;7.57;;;5.15;;
80508;SDS011;69838;52.602;13.434;2023-07-16T03:04:38;7.57;;;5.38;;
80508;SDS011;69838;52.602;13.434;2023-07-16T03:05:24;7.20;;;4.82;;
80508;SDS011;69838;52.602;13.434;2023-07-16T03:06:09;6.47;;;4.93;;
80508;SDS011;69838;52.602;13.434;2023-07-16T03:06:55;8.27;;;4.90;;
80508;SDS011;69838;52.602;13.434;2023-07-16T03:07:40;6.63;;;5.05;;
80508;SDS011;69838;52.602;13.434;2023-07-16T03:08:25;7.88;;;5.70;;
80508;SDS011;69838;52.602;13.434;2023-07-16T03:09:14;7.68;;;5.30;;
80508;SDS011;69838;52.602;13.434;2023-07-16T03:10:00;8.32;;;5.32;;
80508;SDS011;69838;52.602;13.434;2023-07-16T03:10:45;7.68;;;4.80;;
80508;SDS011;69838;52.602;13.434;2023-07-16T03:11:30;6.38;;;5.07;;
80508;SDS011;69838;52.602;13.434;2023-07-16T03:12:16;7.00;;;5.45;;
80508;SDS011;69838;52.602;13.434;2023-07-16T03:13:01;6.78;;;5.22;;
80508;SDS011;69838;52.602;13.434;2023-07-16T03:13:46;7.35;;;5.32;;
80508;SDS011;69838;52.602;13.434;2023-07-16T03:14:31;7.00;;;4.93;;
80508;SDS011;69838;52.602;13.434;2023-07-16T03:15:17;8.77;;;5.47;;
80508;SDS011;69838;52.602;13.434;2023-07-16T03:16:02;7.90;;;5.40;;
80508;SDS011;69838;52.602;13.434;2023-07-16T03:16:47;8.70;;;6.07;;
80508;SDS011;69838;52.602;13.434;2023-07-16T03:17:32;8.52;;;5.78;;
80508;SDS011;69838;52.602;13.434;2023-07-16T03:18:18;6.65;;;5.30;;
80508;SDS011;69838;52.602;13.434;2023-07-16T03:19:03;7.20;;;5.72;;
80508;SDS011;69838;52.602;13.434;2023-07-16T03:19:49;7.90;;;5.43;;
80508;SDS011;69838;52.602;13.434;2023-07-16T03:20:34;8.63;;;5.47;;
80508;SDS011;69838;52.602;13.434;2023-07-16T03:21:19;7.38;;;5.88;;
80508;SDS011;69838;52.602;13.434;2023-07-16T03:22:05;9.45;;;6.03;;
80508;SDS011;69838;52.602;13.434;2023-07-16T03:22:50;8.05;;;6.28;;
80508;SDS011;69838;52.602;13.434;2023-07-16T03:23:35;8.32;;;5.97;;
80508;SDS011;69838;52.602;13.434;2023-07-16T03:24:20;8.00;;;5.80;;
80508;SDS011;69838;52.602;13.434;2023-07-16T03:25:06;8.05;;;6.18;;
80508;SDS011;69838;52.602;13.434;2023-07-16T03:25:51;8.57;;;6.05;;
80508;SDS011;69838;52.602;13.434;2023-07-16T03:26:37;7.82;;;5.90;;
80508;SDS011;69838;52.602;13.434;2023-07-16T03:27:22;8.57;;;6.60;;
80508;SDS011;69838;52.602;13.434;2023-07-16T03:28:07;7.80;;;6.00;;
80508;SDS011;69838;52.602;13.434;2023-07-16T03:28:53;7.30;;;6.07;;
80508;SDS011;69838;52.602;13.434;2023-07-16T03:29:38;9.15;;;6.40;;
80508;SDS011;69838;52.602;13.434;2023-07-16T03:30:23;9.63;;;8.63;;
80508;SDS011;69838;52.602;13.434;2023-07-16T03:31:09;9.85;;;7.03;;
80508;SDS011;69838;52.602;13.434;2023-07-16T03:31:54;8.30;;;7.00;;
80508;SDS011;69838;52.602;13.434;2023-07-16T03:32:39;8.57;;;6.35;;
80508;SDS011;69838;52.602;13.434;2023-07-16T03:33:24;8.88;;;7.00;;
80508;SDS011;69838;52.602;13.434;2023-07-16T03:34:10;8.80;;;7.35;;
80508;SDS011;69838;52.602;13.434;2023-07-16T03:34:55;9.68;;;7.35;;
80508;SDS011;69838;52.602;13.434;2023-07-16T03:35:43;10.40;;;8.75;;
80508;SDS011;69838;52.602;13.434;2023-07-16T03:36:29;8.65;;;6.35;;
80508;SDS011;69838;52.602;13.434;2023-07-16T03:37:15;8.30;;;6.40;;
80508;SDS011;69838;52.602;13.434;2023-07-16T03:38:00;7.60;;;6.50;;
80508;SDS011;69838;52.602;13.434;2023-07-16T03:38:45;8.27;;;5.90;;
80508;SDS011;69838;52.602;13.434;2023-07-16T03:39:30;9.20;;;6.38;;
80508;SDS011;69838;52.602;13.434;2023-07-16T03:40:16;10.93;;;8.10;;
80508;SDS011;69838;52.602;13.434;2023-07-16T03:41:03;8.55;;;7.10;;
80508;SDS011;69838;52.602;13.434;2023-07-16T03:41:48;8.52;;;6.40;;
80508;SDS011;69838;52.602;13.434;2023-07-16T03:42:33;8.50;;;6.65;;
80508;SDS011;69838;52.602;13.434;2023-07-16T03:43:19;8.57;;;6.25;;
80508;SDS011;69838;52.602;13.434;2023-07-16T03:44:04;11.23;;;6.82;;
80508;SDS011;69838;52.602;13.434;2023-07-16T03:44:49;8.18;;;6.40;;
80508;SDS011;69838;52.602;13.434;2023-07-16T03:45:34;8.38;;;6.55;;
80508;SDS011;69838;52.602;13.434;2023-07-16T03:46:20;11.40;;;6.85;;
80508;SDS011;69838;52.602;13.434;2023-07-16T03:47:05;9.10;;;6.50;;
80508;SDS011;69838;52.602;13.434;2023-07-16T03:47:50;8.70;;;7.05;;
80508;SDS011;69838;52.602;13.434;2023-07-16T03:48:35;9.50;;;7.88;;
80508;SDS011;69838;52.602;13.434;2023-07-16T03:49:21;9.20;;;6.88;;
80508;SDS011;69838;52.602;13.434;2023-07-16T03:50:06;9.15;;;6.88;;
80508;SDS011;69838;52.602;13.434;2023-07-16T03:50:52;7.82;;;6.18;;
80508;SDS011;69838;52.602;13.434;2023-07-16T03:51:37;9.40;;;8.15;;
80508;SDS011;69838;52.602;13.434;2023-07-16T03:52:22;9.40;;;6.70;;
80508;SDS011;69838;52.602;13.434;2023-07-16T03:53:09;7.43;;;6.00;;
80508;SDS011;69838;52.602;13.434;2023-07-16T03:53:55;9.68;;;7.00;;
80508;SDS011;69838;52.602;13.434;2023-07-16T03:54:41;9.43;;;6.53;;
80508;SDS011;69838;52.602;13.434;2023-07-16T03:55:26;8.98;;;6.80;;
80508;SDS011;69838;52.602;13.434;2023-07-16T03:56:11;7.80;;;6.35;;
80508;SDS011;69838;52.602;13.434;2023-07-16T03:56:56;7.93;;;6.60;;
80508;SDS011;69838;52.602;13.434;2023-07-16T03:57:42;8.70;;;7.43;;
80508;SDS011;69838;52.602;13.434;2023-07-16T03:58:27;8.98;;;6.40;;
80508;SDS011;69838;52.602;13.434;2023-07-16T03:59:14;8.75;;;6.95;;
80508;SDS011;69838;52.602;13.434;2023-07-16T03:59:59;9.15;;;6.75;;
80508;SDS011;69838;52.602;13.434;2023-07-16T04:00:44;7.82;;;5.68;;
80508;SDS011;69838;52.602;13.434;2023-07-16T04:01:30;10.43;;;6.03;;
80508;SDS011;69838;52.602;13.434;2023-07-16T04:02:15;9.07;;;6.00;;
80508;SDS011;69838;52.602;13.434;2023-07-16T04:03:00;8.13;;;6.13;;
80508;SDS011;69838;52.602;13.434;2023-07-16T04:03:45;8.88;;;6.50;;
80508;SDS011;69838;52.602;13.434;2023-07-16T04:04:31;8.23;;;6.88;;
80508;SDS011;69838;52.602;13.434;2023-07-16T04:05:16;9.10;;;6.85;;
80508;SDS011;69838;52.602;13.434;2023-07-16T04:06:05;8.52;;;6.25;;
80508;SDS011;69838;52.602;13.434;2023-07-16T04:06:51;8.30;;;6.15;;
80508;SDS011;69838;52.602;13.434;2023-07-16T04:07:36;10.45;;;6.07;;
80508;SDS011;69838;52.602;13.434;2023-07-16T04:08:21;6.88;;;5.60;;
80508;SDS011;69838;52.602;13.434;2023-07-16T04:09:07;8.25;;;6.30;;
80508;SDS011;69838;52.602;13.434;2023-07-16T04:09:52;6.88;;;5.43;;
80508;SDS011;69838;52.602;13.434;2023-07-16T04:10:37;7.65;;;5.53;;
80508;SDS011;69838;52.602;13.434;2023-07-16T04:11:22;8.13;;;5.35;;
80508;SDS011;69838;52.602;13.434;2023-07-16T04:12:08;8.15;;;5.88;;
80508;SDS011;69838;52.602;13.434;2023-07-16T04:12:53;7.13;;;5.28;;
80508;SDS011;69838;52.602;13.434;2023-07-16T04:13:38;8.68;;;5.95;;
80508;SDS011;69838;52.602;13.434;2023-07-16T04:14:23;7.90;;;5.97;;
80508;SDS011;69838;52.602;13.434;2023-07-16T04:15:09;7.93;;;5.45;;
80508;SDS011;69838;52.602;13.434;2023-07-16T04:15:55;7.65;;;5.35;;
80508;SDS011;69838;52.602;13.434;2023-07-16T04:16:42;7.22;;;5.10;;
80508;SDS011;69838;52.602;13.434;2023-07-16T04:17:27;7.65;;;5.68;;
80508;SDS011;69838;52.602;13.434;2023-07-16T04:18:13;8.15;;;5.53;;
80508;SDS011;69838;52.602;13.434;2023-07-16T04:18:58;8.43;;;6.38;;
80508;SDS011;69838;52.602;13.434;2023-07-16T04:19:43;6.85;;;5.28;;
80508;SDS011;69838;52.602;13.434;2023-07-16T04:20:28;6.00;;;4.88;;
80508;SDS011;69838;52.602;13.434;2023-07-16T04:21:15;8.55;;;5.93;;
80508;SDS011;69838;52.602;13.434;2023-07-16T04:22:01;7.85;;;6.95;;
80508;SDS011;69838;52.602;13.434;2023-07-16T04:22:46;7.28;;;5.05;;
80508;SDS011;69838;52.602;13.434;2023-07-16T04:23:31;6.30;;;5.28;;
80508;SDS011;69838;52.602;13.434;2023-07-16T04:24:16;7.57;;;5.35;;
80508;SDS011;69838;52.602;13.434;2023-07-16T04:25:02;7.60;;;4.90;;
80508;SDS011;69838;52.602;13.434;2023-07-16T04:25:52;7.15;;;5.10;;
80508;SDS011;69838;52.602;13.434;2023-07-16T04:26:38;6.30;;;4.75;;
80508;SDS011;69838;52.602;13.434;2023-07-16T04:27:23;7.40;;;5.57;;
80508;SDS011;69838;52.602;13.434;2023-07-16T04:28:09;6.65;;;4.82;;
80508;SDS011;69838;52.602;13.434;2023-07-16T04:28:55;6.68;;;5.07;;
80508;SDS011;69838;52.602;13.434;2023-07-16T04:29:41;6.90;;;4.97;;
80508;SDS011;69838;52.602;13.434;2023-07-16T04:30:26;7.47;;;4.93;;
80508;SDS011;69838;52.602;13.434;2023-07-16T04:31:11;7.30;;;4.53;;
80508;SDS011;69838;52.602;13.434;2023-07-16T04:31:56;7.28;;;4.90;;
80508;SDS011;69838;52.602;13.434;2023-07-16T04:32:42;7.25;;;4.13;;
80508;SDS011;69838;52.602;13.434;2023-07-16T04:33:27;6.93;;;4.60;;
80508;SDS011;69838;52.602;13.434;2023-07-16T04:34:12;7.60;;;4.57;;
80508;SDS011;69838;52.602;13.434;2023-07-16T04:34:57;6.88;;;4.43;;
80508;SDS011;69838;52.602;13.434;2023-07-16T04:35:43;7.25;;;4.40;;
80508;SDS011;69838;52.602;13.434;2023-07-16T04:36:28;6.20;;;4.47;;
80508;SDS011;69838;52.602;13.434;2023-07-16T04:37:13;7.47;;;4.13;;